Time;durP1;ratioP1;P1;durP2;ratioP2;P2;SDS_P1;SDS_P2;PMS_P1;PMS_P2;Temp;Humidity;BMP_temperature;BMP_pressure;BME280_temperature;BME280_humidity;BME280_pressure;Samples;Min_cycle;Max_cycle;Signal;HPM_P1;HPM_P2
2021/07/19 00:00:33;;;;;;;13.00;7.18;;;;;;;;;;1456429;40;20178;-45
2021/07/19 00:01:36;;;;;;;15.70;7.80;;;;;;;;;;1465983;40;20127;-42
2021/07/19 00:02:37;;;;;;;17.27;7.78;;;;;;;;;;1466344;40;20049;-41
2021/07/19 00:03:38;;;;;;;13.75;6.47;;;;;;;;;;1465657;40;20056;-40
2021/07/19 00:04:44;;;;;;;11.07;6.80;;;;;;;;;;1468954;40;20084;-42
2021/07/19 00:05:44;;;;;;;12.07;7.82;;;;;;;;;;1469769;40;20264;-42
2021/07/19 00:06:45;;;;;;;15.70;6.97;;;;;;;;;;1471768;40;20094;-39
2021/07/19 00:07:45;;;;;;;14.25;6.88;;;;;;;;;;1473993;40;20561;-43
2021/07/19 00:08:46;;;;;;;12.87;6.90;;;;;;;;;;1478701;40;20057;-41
2021/07/19 00:09:46;;;;;;;17.13;7.00;;;;;;;;;;1479445;40;20113;-45
2021/07/19 00:10:48;;;;;;;10.10;6.23;;;;;;;;;;1470205;40;20494;-43
2021/07/19 00:11:49;;;;;;;12.18;6.45;;;;;;;;;;1470251;40;20248;-42
2021/07/19 00:12:51;;;;;;;;;;;;;;;;;;1469107;40;20048;-38
2021/07/19 00:13:51;;;;;;;11.90;6.60;;;;;;;;;;1478740;40;20384;-41
2021/07/19 00:14:52;;;;;;;15.43;6.43;;;;;;;;;;1472721;40;20107;-39
2021/07/19 00:15:52;;;;;;;24.45;6.43;;;;;;;;;;1466148;40;20238;-45
2021/07/19 00:16:54;;;;;;;8.15;5.50;;;;;;;;;;1469922;40;20306;-40
2021/07/19 00:17:56;;;;;;;11.13;6.30;;;;;;;;;;1470099;40;20415;-41
2021/07/19 00:18:58;;;;;;;16.42;6.70;;;;;;;;;;1470059;40;20450;-38
2021/07/19 00:19:59;;;;;;;18.70;6.65;;;;;;;;;;1471544;40;20230;-44
2021/07/19 00:20:59;;;;;;;12.52;6.43;;;;;;;;;;1473493;40;20085;-43
2021/07/19 00:22:01;;;;;;;13.57;6.70;;;;;;;;;;1462387;40;20702;-41
2021/07/19 00:23:02;;;;;;;14.00;6.90;;;;;;;;;;1457498;40;20046;-47
2021/07/19 00:24:02;;;;;;;11.77;6.95;;;;;;;;;;1457935;40;20043;-43
2021/07/19 00:25:05;;;;;;;14.48;7.00;;;;;;;;;;1453982;40;20075;-42
2021/07/19 00:26:05;;;;;;;13.10;6.78;;;;;;;;;;1441259;40;20055;-47
2021/07/19 00:27:06;;;;;;;12.02;6.32;;;;;;;;;;1454099;40;20055;-42
2021/07/19 00:28:06;;;;;;;14.02;7.38;;;;;;;;;;1452484;40;20035;-41
2021/07/19 00:29:07;;;;;;;15.35;6.72;;;;;;;;;;1453144;40;20067;-40
2021/07/19 00:30:10;;;;;;;174.20;21.88;;;;;;;;;;1453941;40;20098;-39
2021/07/19 00:31:10;;;;;;;16.38;7.00;;;;;;;;;;1457916;40;20074;-41
2021/07/19 00:32:11;;;;;;;16.90;6.55;;;;;;;;;;1450077;40;20448;-44
2021/07/19 00:33:12;;;;;;;8.77;5.68;;;;;;;;;;1449479;40;20324;-43
2021/07/19 00:34:13;;;;;;;11.43;5.72;;;;;;;;;;1449939;40;20031;-42
2021/07/19 00:35:14;;;;;;;16.13;5.72;;;;;;;;;;1450213;40;20057;-40
2021/07/19 00:36:15;;;;;;;;;;;;;;;;;;1460043;40;20123;-43
2021/07/19 00:37:15;;;;;;;11.45;6.22;;;;;;;;;;1456727;40;20213;-43
2021/07/19 00:38:16;;;;;;;16.33;6.80;;;;;;;;;;1457956;40;20287;-39
2021/07/19 00:39:16;;;;;;;14.85;6.25;;;;;;;;;;1461409;40;20189;-38
2021/07/19 00:40:20;;;;;;;15.95;5.68;;;;;;;;;;1462018;40;20206;-44
2021/07/19 00:41:21;;;;;;;16.00;6.47;;;;;;;;;;1461756;40;20616;-42
2021/07/19 00:42:22;;;;;;;15.70;6.57;;;;;;;;;;1458141;40;20031;-45
2021/07/19 00:43:22;;;;;;;18.00;7.32;;;;;;;;;;1457289;40;20426;-38
2021/07/19 00:44:23;;;;;;;11.60;6.45;;;;;;;;;;1463510;40;20644;-47
2021/07/19 00:45:27;;;;;;;18.55;6.32;;;;;;;;;;1466213;40;20208;-41
2021/07/19 00:46:27;;;;;;;21.02;6.60;;;;;;;;;;1466405;40;20308;-43
2021/07/19 00:47:28;;;;;;;10.23;5.90;;;;;;;;;;1462179;40;20419;-40
2021/07/19 00:48:28;;;;;;;15.02;6.57;;;;;;;;;;1461775;40;20382;-43
2021/07/19 00:49:32;;;;;;;16.98;6.18;;;;;;;;;;1457944;40;20173;-41
2021/07/19 00:50:38;;;;;;;12.80;6.75;;;;;;;;;;1453731;40;20197;-39
2021/07/19 00:51:41;;;;;;;14.68;7.00;;;;;;;;;;1441180;40;20039;-38
2021/07/19 00:52:42;;;;;;;11.27;6.38;;;;;;;;;;1454346;40;20027;-42
2021/07/19 00:53:42;;;;;;;19.95;6.20;;;;;;;;;;1466860;40;20403;-45
2021/07/19 00:54:45;;;;;;;9.88;5.75;;;;;;;;;;1474819;40;20037;-41
2021/07/19 00:55:47;;;;;;;10.65;5.53;;;;;;;;;;1466021;40;20092;-42
2021/07/19 00:56:50;;;;;;;12.15;6.20;;;;;;;;;;1465613;40;20294;-40
2021/07/19 00:57:54;;;;;;;14.02;5.93;;;;;;;;;;1469832;40;20203;-40
2021/07/19 00:58:57;;;;;;;10.93;4.95;;;;;;;;;;1463071;40;20030;-46
2021/07/19 00:59:59;;;;;;;14.90;6.15;;;;;;;;;;1456371;40;20090;-44
2021/07/19 01:01:00;;;;;;;11.45;5.28;;;;;;;;;;1465562;40;20336;-51
2021/07/19 01:02:01;;;;;;;;;;;;;;;;;;1466018;40;20358;-41
2021/07/19 01:03:04;;;;;;;10.05;5.07;;;;;;;;;;1470333;40;19929;-45
2021/07/19 01:04:05;;;;;;;12.68;5.38;;;;;;;;;;1461449;40;20046;-38
2021/07/19 01:05:07;;;;;;;10.32;5.65;;;;;;;;;;1460544;40;20080;-41
2021/07/19 01:06:08;;;;;;;12.65;6.18;;;;;;;;;;1469753;40;20143;-39
2021/07/19 01:07:11;;;;;;;15.32;5.97;;;;;;;;;;1467741;40;20417;-43
2021/07/19 01:08:12;;;;;;;9.32;5.60;;;;;;;;;;1469750;40;20423;-43
2021/07/19 01:09:14;;;;;;;9.60;5.80;;;;;;;;;;1469787;40;20211;-41
2021/07/19 01:10:18;;;;;;;13.20;6.15;;;;;;;;;;1469908;40;20131;-42
2021/07/19 01:11:19;;;;;;;12.43;6.03;;;;;;;;;;1469971;40;20499;-42
2021/07/19 01:12:20;;;;;;;12.43;6.07;;;;;;;;;;1470180;40;20123;-40
2021/07/19 01:13:20;;;;;;;9.70;5.40;;;;;;;;;;1469960;40;20243;-41
2021/07/19 01:14:21;;;;;;;9.43;5.97;;;;;;;;;;1466551;40;20077;-40
2021/07/19 01:15:24;;;;;;;11.88;6.10;;;;;;;;;;1469951;40;20155;-38
2021/07/19 01:16:25;;;;;;;11.82;5.32;;;;;;;;;;1469959;40;20041;-45
2021/07/19 01:17:25;;;;;;;8.25;5.15;;;;;;;;;;1466133;40;20402;-42
2021/07/19 01:18:26;;;;;;;8.60;4.93;;;;;;;;;;1465889;40;20187;-41
2021/07/19 01:19:32;;;;;;;14.03;5.17;;;;;;;;;;1467270;40;20778;-41
2021/07/19 01:21:06;;;;;;;16.20;5.05;;;;;;;;;;1470155;40;20621;-41
2021/07/19 01:22:40;;;;;;;13.52;5.07;;;;;;;;;;1463779;40;20030;-44
2021/07/19 01:24:04;;;;;;;11.10;5.65;;;;;;;;;;1467961;40;20046;-44
2021/07/19 01:25:42;;;;;;;11.95;5.05;;;;;;;;;;1470049;40;20033;-42
2021/07/19 01:26:50;;;;;;;8.88;5.07;;;;;;;;;;1465999;40;20041;-45
2021/07/19 01:28:03;;;;;;;10.23;5.00;;;;;;;;;;1464468;40;20049;-42
2021/07/19 01:29:06;;;;;;;10.13;5.18;;;;;;;;;;1465970;40;20387;-40
2021/07/19 01:30:07;;;;;;;68.60;12.13;;;;;;;;;;1464028;40;20488;-50
2021/07/19 01:31:21;;;;;;;7.30;3.92;;;;;;;;;;1469361;40;20099;-42
2021/07/19 01:32:24;;;;;;;16.17;4.93;;;;;;;;;;1468765;40;20034;-43
2021/07/19 01:33:26;;;;;;;9.70;5.05;;;;;;;;;;1465844;40;20392;-40
2021/07/19 01:34:30;;;;;;;11.98;5.20;;;;;;;;;;1465783;40;20053;-42
2021/07/19 01:35:34;;;;;;;11.25;5.03;;;;;;;;;;1469882;40;20103;-41
2021/07/19 01:36:44;;;;;;;13.38;5.30;;;;;;;;;;1470358;40;20057;-39
2021/07/19 01:37:47;;;;;;;11.20;5.57;;;;;;;;;;1471319;40;20049;-46
2021/07/19 01:38:47;;;;;;;12.60;5.30;;;;;;;;;;1474133;40;20134;-42
2021/07/19 01:39:48;;;;;;;10.80;5.38;;;;;;;;;;1469852;40;20034;-44
2021/07/19 01:40:49;;;;;;;8.80;5.20;;;;;;;;;;1458002;40;20319;-40
2021/07/19 01:41:52;;;;;;;9.20;5.30;;;;;;;;;;1469587;40;20662;-39
2021/07/19 01:42:54;;;;;;;11.00;5.60;;;;;;;;;;1477782;40;20068;-41
2021/07/19 01:43:56;;;;;;;11.60;5.43;;;;;;;;;;1475750;40;20020;-42
2021/07/19 01:44:59;;;;;;;10.02;5.53;;;;;;;;;;1478789;40;20129;-42
2021/07/19 01:46:01;;;;;;;18.70;5.70;;;;;;;;;;1467748;40;20146;-41
2021/07/19 01:47:06;;;;;;;16.45;5.70;;;;;;;;;;1463027;40;20187;-41
2021/07/19 01:48:08;;;;;;;14.02;5.80;;;;;;;;;;1470005;40;20039;-42
2021/07/19 01:49:13;;;;;;;15.10;5.82;;;;;;;;;;1470029;40;20037;-44
2021/07/19 01:50:14;;;;;;;12.32;5.43;;;;;;;;;;1474243;40;20137;-39
2021/07/19 01:51:15;;;;;;;9.73;5.68;;;;;;;;;;1479428;40;20667;-45
2021/07/19 01:52:18;;;;;;;10.10;5.32;;;;;;;;;;1469864;40;20226;-39
2021/07/19 01:53:19;;;;;;;15.20;5.40;;;;;;;;;;1465384;40;20138;-43
2021/07/19 01:54:20;;;;;;;16.98;5.63;;;;;;;;;;1474529;40;20523;-40
2021/07/19 01:55:21;;;;;;;13.40;5.82;;;;;;;;;;1472134;40;20249;-42
2021/07/19 01:56:23;;;;;;;10.68;5.20;;;;;;;;;;1474744;40;20197;-43
2021/07/19 01:57:24;;;;;;;13.40;5.55;;;;;;;;;;1465896;40;20372;-38
2021/07/19 01:58:25;;;;;;;;;;;;;;;;;;1465094;40;20081;-42
2021/07/19 01:59:27;;;;;;;7.93;5.05;;;;;;;;;;1474306;40;20110;-41
2021/07/19 02:00:29;;;;;;;10.48;4.97;;;;;;;;;;1474655;40;20171;-39
2021/07/19 02:01:30;;;;;;;11.27;5.00;;;;;;;;;;1474751;40;20553;-38
2021/07/19 02:02:31;;;;;;;7.80;5.22;;;;;;;;;;1472403;40;20253;-40
2021/07/19 02:03:32;;;;;;;14.02;5.15;;;;;;;;;;1478915;40;20037;-43
2021/07/19 02:04:33;;;;;;;12.68;5.90;;;;;;;;;;1479102;40;20436;-42
2021/07/19 02:05:33;;;;;;;13.20;5.00;;;;;;;;;;1479230;40;20052;-41
2021/07/19 02:06:34;;;;;;;19.00;5.47;;;;;;;;;;1470125;40;20165;-40
2021/07/19 02:07:37;;;;;;;10.88;5.28;;;;;;;;;;1464280;40;20301;-40
2021/07/19 02:08:38;;;;;;;9.20;5.30;;;;;;;;;;1467573;40;20063;-43
2021/07/19 02:09:39;;;;;;;15.20;5.00;;;;;;;;;;1470193;40;20050;-42
2021/07/19 02:13:07;;;;;;;16.52;5.22;;;;;;;;;;1459746;40;20057;-44
2021/07/19 02:14:08;;;;;;;9.23;5.10;;;;;;;;;;1462084;40;20227;-45
2021/07/19 02:15:12;;;;;;;;;;;;;;;;;;1461271;40;20172;-41
2021/07/19 02:16:14;;;;;;;13.27;5.00;;;;;;;;;;1456992;40;19942;-52
2021/07/19 02:17:16;;;;;;;19.10;5.55;;;;;;;;;;1454733;40;20034;-42
2021/07/19 02:18:18;;;;;;;17.15;6.43;;;;;;;;;;1451984;40;20039;-45
2021/07/19 02:19:19;;;;;;;13.38;5.15;;;;;;;;;;1449227;40;21435;-40
2021/07/19 02:20:21;;;;;;;12.50;5.60;;;;;;;;;;1450905;40;21866;-44
2021/07/19 02:21:23;;;;;;;12.35;5.28;;;;;;;;;;1449169;40;20113;-47
2021/07/19 02:22:23;;;;;;;13.80;5.47;;;;;;;;;;1448855;40;20401;-44
2021/07/19 02:23:25;;;;;;;12.07;5.60;;;;;;;;;;1438210;41;22883;-45
2021/07/19 02:24:27;;;;;;;11.48;5.28;;;;;;;;;;1444420;40;20072;-43
2021/07/19 02:25:28;;;;;;;10.75;5.18;;;;;;;;;;1449140;40;20178;-44
2021/07/19 02:26:29;;;;;;;14.57;5.80;;;;;;;;;;1445426;40;20656;-43
2021/07/19 02:27:30;;;;;;;;;;;;;;;;;;1446298;40;20144;-45
2021/07/19 02:28:33;;;;;;;10.75;5.07;;;;;;;;;;1436918;41;20592;-43
2021/07/19 02:29:34;;;;;;;18.27;5.38;;;;;;;;;;1445610;40;20222;-46
2021/07/19 02:30:35;;;;;;;9.77;5.10;;;;;;;;;;1441998;41;20044;-49
2021/07/19 02:31:36;;;;;;;;;;;;;;;;;;1446346;40;21492;-42
2021/07/19 02:32:39;;;;;;;10.48;5.40;;;;;;;;;;1445387;40;20234;-43
2021/07/19 02:33:40;;;;;;;10.25;4.90;;;;;;;;;;1449363;40;20039;-45
2021/07/19 02:34:41;;;;;;;19.50;5.60;;;;;;;;;;1452958;40;20098;-41
2021/07/19 02:35:42;;;;;;;13.10;5.90;;;;;;;;;;1453243;40;20339;-43
2021/07/19 02:36:44;;;;;;;14.95;5.25;;;;;;;;;;1453237;40;21257;-43
2021/07/19 02:37:46;;;;;;;14.93;5.72;;;;;;;;;;1449991;40;20043;-43
2021/07/19 02:38:48;;;;;;;13.27;5.45;;;;;;;;;;1447257;40;21021;-47
2021/07/19 02:39:50;;;;;;;28.75;5.90;;;;;;;;;;1448963;40;20059;-41
2021/07/19 02:40:52;;;;;;;56.88;7.95;;;;;;;;;;1449291;40;20067;-43
2021/07/19 02:41:54;;;;;;;124.45;12.25;;;;;;;;;;1449429;40;20032;-43
2021/07/19 02:42:57;;;;;;;10.13;5.43;;;;;;;;;;1445950;40;20421;-41
2021/07/19 02:44:02;;;;;;;88.35;7.60;;;;;;;;;;1445231;40;20036;-43
2021/07/19 02:45:06;;;;;;;16.50;6.47;;;;;;;;;;1449301;40;20054;-45
2021/07/19 02:46:09;;;;;;;13.52;5.78;;;;;;;;;;1450102;40;20406;-47
2021/07/19 02:47:10;;;;;;;16.02;5.72;;;;;;;;;;1443445;40;21489;-45
2021/07/19 02:48:12;;;;;;;;;;;;;;;;;;1443954;41;20490;-43
2021/07/19 02:49:12;;;;;;;13.45;5.75;;;;;;;;;;1439668;41;19936;-45
2021/07/19 02:50:16;;;;;;;7.28;5.28;;;;;;;;;;1441284;41;20086;-44
2021/07/19 02:51:16;;;;;;;11.48;5.80;;;;;;;;;;1451764;40;20222;-42
2021/07/19 02:52:17;;;;;;;13.80;6.10;;;;;;;;;;1453461;40;20069;-43
2021/07/19 02:53:18;;;;;;;16.25;6.18;;;;;;;;;;1445516;40;20036;-45
2021/07/19 02:54:21;;;;;;;11.30;6.03;;;;;;;;;;1443271;40;20031;-43
2021/07/19 02:55:22;;;;;;;15.57;5.38;;;;;;;;;;1442697;40;21542;-42
2021/07/19 02:56:24;;;;;;;13.65;5.03;;;;;;;;;;1449137;40;20076;-47
2021/07/19 02:57:25;;;;;;;16.95;5.80;;;;;;;;;;1449330;40;20044;-43
2021/07/19 02:58:26;;;;;;;13.32;5.63;;;;;;;;;;1454484;40;20794;-42
2021/07/19 02:59:26;;;;;;;;;;;;;;;;;;1457734;40;21154;-42
2021/07/19 03:00:27;;;;;;;13.60;5.82;;;;;;;;;;1453372;40;20164;-45
2021/07/19 03:01:29;;;;;;;13.95;5.55;;;;;;;;;;1450304;40;20523;-41
2021/07/19 03:02:29;;;;;;;11.05;5.63;;;;;;;;;;1456967;40;20251;-44
2021/07/19 03:03:32;;;;;;;20.98;5.80;;;;;;;;;;1453508;40;20768;-43
2021/07/19 03:04:36;;;;;;;16.35;5.80;;;;;;;;;;1453101;40;20521;-44
2021/07/19 03:05:37;;;;;;;13.05;6.10;;;;;;;;;;1449452;40;21025;-44
2021/07/19 03:06:41;;;;;;;15.52;6.13;;;;;;;;;;1457134;40;20054;-45
2021/07/19 03:07:44;;;;;;;17.15;6.05;;;;;;;;;;1457076;40;20034;-47
2021/07/19 03:08:46;;;;;;;13.77;5.88;;;;;;;;;;1449050;40;20373;-44
2021/07/19 03:09:51;;;;;;;12.18;5.82;;;;;;;;;;1449322;40;20036;-40
2021/07/19 03:10:53;;;;;;;11.75;6.38;;;;;;;;;;1449955;40;20118;-44
2021/07/19 03:11:55;;;;;;;10.05;6.05;;;;;;;;;;1448972;40;20032;-42
2021/07/19 03:12:57;;;;;;;;;;;;;;;;;;1445585;40;20043;-44
2021/07/19 03:14:00;;;;;;;14.95;6.05;;;;;;;;;;1442506;40;19931;-44
2021/07/19 03:15:01;;;;;;;16.08;6.13;;;;;;;;;;1457183;40;20098;-44
2021/07/19 03:16:02;;;;;;;12.82;6.13;;;;;;;;;;1459656;40;20111;-45
2021/07/19 03:17:03;;;;;;;10.82;5.78;;;;;;;;;;1456967;40;20435;-42
2021/07/19 03:18:07;;;;;;;7.40;5.30;;;;;;;;;;1457285;40;20050;-42
2021/07/19 03:19:09;;;;;;;9.80;5.85;;;;;;;;;;1450955;40;20081;-44
2021/07/19 03:20:11;;;;;;;13.05;6.03;;;;;;;;;;1451939;40;20019;-46
2021/07/19 03:21:15;;;;;;;10.40;6.43;;;;;;;;;;1451574;40;20057;-46
2021/07/19 03:22:17;;;;;;;8.45;5.90;;;;;;;;;;1453026;40;20273;-44
2021/07/19 03:23:21;;;;;;;9.40;5.45;;;;;;;;;;1452964;40;20590;-44
2021/07/19 03:24:23;;;;;;;10.15;6.05;;;;;;;;;;1457191;40;20033;-45
2021/07/19 03:25:27;;;;;;;13.95;5.90;;;;;;;;;;1450293;40;20177;-43
2021/07/19 03:26:29;;;;;;;9.68;5.72;;;;;;;;;;1456494;40;20071;-41
2021/07/19 03:27:31;;;;;;;15.73;6.45;;;;;;;;;;1456964;40;20102;-43
2021/07/19 03:28:32;;;;;;;9.93;5.60;;;;;;;;;;1456880;40;20395;-46
2021/07/19 03:29:33;;;;;;;9.02;5.53;;;;;;;;;;1458073;40;20377;-42
2021/07/19 03:30:36;;;;;;;13.18;5.93;;;;;;;;;;1460827;40;20044;-45
2021/07/19 03:31:37;;;;;;;8.30;5.32;;;;;;;;;;1461092;40;20333;-44
2021/07/19 03:32:38;;;;;;;7.65;6.03;;;;;;;;;;1461060;40;21087;-43
2021/07/19 03:33:43;;;;;;;;;;;;;;;;;;1457656;40;20489;-42
2021/07/19 03:34:44;;;;;;;15.55;5.70;;;;;;;;;;1449763;40;20148;-46
2021/07/19 03:35:45;;;;;;;9.57;5.68;;;;;;;;;;1453090;40;21725;-44
2021/07/19 03:36:46;;;;;;;10.85;5.40;;;;;;;;;;1456947;40;20042;-41
2021/07/19 03:37:48;;;;;;;10.50;5.45;;;;;;;;;;1456985;40;20047;-43
2021/07/19 03:38:49;;;;;;;7.70;5.82;;;;;;;;;;1459709;40;20069;-43
2021/07/19 03:39:51;;;;;;;9.10;5.80;;;;;;;;;;1461195;40;20061;-56
2021/07/19 03:40:54;;;;;;;8.82;5.95;;;;;;;;;;1455507;40;20045;-46
2021/07/19 03:41:55;;;;;;;10.32;6.32;;;;;;;;;;1461045;40;20054;-46
2021/07/19 03:42:58;;;;;;;8.10;5.45;;;;;;;;;;1456955;40;20404;-43
2021/07/19 03:44:01;;;;;;;14.18;5.72;;;;;;;;;;1449019;40;20047;-42
2021/07/19 03:45:03;;;;;;;10.43;5.47;;;;;;;;;;1453811;40;20391;-46
2021/07/19 03:46:04;;;;;;;9.75;5.80;;;;;;;;;;1460645;40;20369;-45
2021/07/19 03:47:04;;;;;;;10.13;5.70;;;;;;;;;;1460633;40;20030;-44
2021/07/19 03:48:06;;;;;;;12.60;5.45;;;;;;;;;;1460453;40;20331;-44
2021/07/19 03:49:07;;;;;;;12.27;5.90;;;;;;;;;;1458917;40;20167;-45
2021/07/19 03:50:09;;;;;;;11.05;5.78;;;;;;;;;;1454477;40;20062;-44
2021/07/19 03:51:10;;;;;;;10.80;5.40;;;;;;;;;;1454998;40;20043;-42
2021/07/19 03:52:11;;;;;;;13.60;5.70;;;;;;;;;;1460830;40;20431;-45
2021/07/19 03:53:13;;;;;;;7.35;5.53;;;;;;;;;;1459780;40;20070;-45
2021/07/19 03:54:14;;;;;;;10.93;5.45;;;;;;;;;;1456878;40;20105;-44
2021/07/19 03:55:15;;;;;;;10.18;5.53;;;;;;;;;;1456701;40;20759;-45
2021/07/19 03:56:18;;;;;;;13.40;5.88;;;;;;;;;;1450540;40;20035;-45
2021/07/19 03:57:19;;;;;;;8.30;5.30;;;;;;;;;;1452460;40;20048;-47
2021/07/19 03:58:20;;;;;;;;;;;;;;;;;;1445014;40;20109;-44
2021/07/19 03:59:23;;;;;;;9.38;5.07;;;;;;;;;;1450518;40;20345;-44
2021/07/19 04:00:25;;;;;;;9.25;5.55;;;;;;;;;;1452540;40;20294;-44
2021/07/19 04:01:25;;;;;;;8.68;5.85;;;;;;;;;;1457114;40;20398;-44
2021/07/19 04:02:27;;;;;;;11.13;5.43;;;;;;;;;;1457905;40;20292;-46
2021/07/19 04:03:30;;;;;;;;;;;;;;;;;;1455450;40;20472;-45
2021/07/19 04:04:38;;;;;;;9.40;5.57;;;;;;;;;;1452913;40;21007;-44
2021/07/19 04:05:41;;;;;;;11.45;5.95;;;;;;;;;;1453114;40;20195;-42
2021/07/19 04:06:41;;;;;;;9.60;5.60;;;;;;;;;;1460818;40;20075;-47
2021/07/19 04:07:44;;;;;;;11.43;5.82;;;;;;;;;;1461276;40;20026;-47
2021/07/19 04:08:45;;;;;;;11.40;5.97;;;;;;;;;;1456902;40;20136;-41
2021/07/19 04:09:46;;;;;;;8.48;5.28;;;;;;;;;;1456787;40;20043;-46
2021/07/19 04:10:49;;;;;;;11.43;5.43;;;;;;;;;;1456911;40;20200;-41
2021/07/19 04:11:50;;;;;;;15.07;5.80;;;;;;;;;;1461036;40;20093;-45
2021/07/19 04:12:51;;;;;;;8.48;5.88;;;;;;;;;;1450824;40;20165;-44
2021/07/19 04:13:54;;;;;;;11.10;5.65;;;;;;;;;;1457017;40;20122;-48
2021/07/19 04:14:54;;;;;;;12.45;5.38;;;;;;;;;;1456750;40;20074;-42
2021/07/19 04:15:56;;;;;;;10.15;5.90;;;;;;;;;;1457136;40;20378;-41
2021/07/19 04:16:56;;;;;;;8.38;5.97;;;;;;;;;;1455700;40;20143;-43
2021/07/19 04:17:57;;;;;;;9.57;5.43;;;;;;;;;;1451861;40;20051;-45
2021/07/19 04:18:57;;;;;;;8.82;5.97;;;;;;;;;;1455906;40;20302;-42
2021/07/19 04:20:01;;;;;;;8.80;5.80;;;;;;;;;;1454875;40;20075;-40
2021/07/19 04:21:03;;;;;;;8.27;5.05;;;;;;;;;;1437381;40;20353;-41
2021/07/19 04:22:04;;;;;;;9.68;6.05;;;;;;;;;;1445444;40;20054;-44
2021/07/19 04:23:08;;;;;;;11.55;5.68;;;;;;;;;;1445433;40;20043;-45
2021/07/19 04:24:11;;;;;;;8.38;6.07;;;;;;;;;;1441235;40;21442;-47
2021/07/19 04:25:13;;;;;;;13.52;5.63;;;;;;;;;;1440447;40;20036;-45
2021/07/19 04:26:15;;;;;;;8.48;5.70;;;;;;;;;;1447777;40;20067;-46
2021/07/19 04:27:16;;;;;;;13.90;6.10;;;;;;;;;;1444593;40;20153;-45
2021/07/19 04:28:20;;;;;;;11.60;5.78;;;;;;;;;;1439724;40;20120;-44
2021/07/19 04:29:22;;;;;;;8.48;5.63;;;;;;;;;;1445192;40;20332;-43
2021/07/19 04:30:31;;;;;;;11.25;5.70;;;;;;;;;;1445167;40;20040;-48
2021/07/19 04:31:32;;;;;;;11.30;5.80;;;;;;;;;;1448430;40;20092;-43
2021/07/19 04:32:32;;;;;;;8.10;5.30;;;;;;;;;;1448800;40;20138;-45
2021/07/19 04:33:33;;;;;;;11.95;5.55;;;;;;;;;;1448863;40;20381;-42
2021/07/19 04:34:35;;;;;;;8.50;5.15;;;;;;;;;;1456842;40;20186;-44
2021/07/19 04:35:35;;;;;;;9.15;5.53;;;;;;;;;;1449192;40;20406;-44
2021/07/19 04:36:36;;;;;;;12.10;5.43;;;;;;;;;;1437860;41;20365;-43
2021/07/19 04:37:37;;;;;;;9.73;5.57;;;;;;;;;;1445092;40;20252;-42
2021/07/19 04:38:37;;;;;;;8.73;5.18;;;;;;;;;;1445491;40;20384;-44
2021/07/19 04:39:39;;;;;;;10.50;5.45;;;;;;;;;;1445431;40;20036;-46
2021/07/19 04:40:40;;;;;;;10.50;5.80;;;;;;;;;;1445260;40;20234;-43
2021/07/19 04:41:40;;;;;;;12.50;5.50;;;;;;;;;;1448828;40;20043;-41
2021/07/19 04:42:41;;;;;;;12.02;5.57;;;;;;;;;;1441475;40;20092;-41
2021/07/19 04:43:42;;;;;;;9.57;5.15;;;;;;;;;;1437620;41;21031;-43
2021/07/19 04:44:42;;;;;;;9.93;5.15;;;;;;;;;;1445346;40;21207;-42
2021/07/19 04:45:46;;;;;;;7.53;5.07;;;;;;;;;;1448685;40;20122;-43
2021/07/19 04:46:50;;;;;;;7.93;6.32;;;;;;;;;;1456764;40;20042;-45
2021/07/19 04:47:50;;;;;;;9.75;5.88;;;;;;;;;;1456769;40;20082;-44
2021/07/19 04:48:51;;;;;;;7.07;5.38;;;;;;;;;;1448889;40;20048;-42
2021/07/19 04:49:51;;;;;;;9.90;5.93;;;;;;;;;;1448984;40;20150;-44
2021/07/19 04:50:52;;;;;;;15.23;5.67;;;;;;;;;;1444837;41;20047;-43
2021/07/19 04:51:53;;;;;;;16.03;6.17;;;;;;;;;;1435989;41;20304;-41
2021/07/19 04:52:54;;;;;;;15.73;6.38;;;;;;;;;;1442283;40;20312;-43
2021/07/19 04:53:55;;;;;;;10.10;5.40;;;;;;;;;;1444976;40;20039;-43
2021/07/19 04:54:56;;;;;;;9.75;6.20;;;;;;;;;;1444666;40;20454;-46
2021/07/19 04:55:58;;;;;;;;;;;;;;;;;;1444802;40;20061;-45
2021/07/19 04:57:01;;;;;;;13.13;6.20;;;;;;;;;;1460884;40;19929;-42
2021/07/19 04:58:04;;;;;;;9.20;5.85;;;;;;;;;;1449421;40;20161;-48
2021/07/19 04:59:06;;;;;;;11.05;6.28;;;;;;;;;;1455813;40;20039;-42
2021/07/19 05:00:07;;;;;;;10.68;5.70;;;;;;;;;;1454840;40;20520;-49
2021/07/19 05:01:09;;;;;;;16.40;6.28;;;;;;;;;;1456767;40;20042;-48
2021/07/19 05:02:12;;;;;;;12.65;5.70;;;;;;;;;;1457260;40;21017;-43
2021/07/19 05:03:16;;;;;;;9.07;5.63;;;;;;;;;;1456712;40;20030;-45
2021/07/19 05:04:21;;;;;;;11.07;5.80;;;;;;;;;;1457990;40;20172;-45
2021/07/19 05:05:24;;;;;;;8.93;6.30;;;;;;;;;;1457982;40;20082;-41
2021/07/19 05:06:27;;;;;;;16.27;6.40;;;;;;;;;;1449236;40;20156;-43
2021/07/19 05:07:32;;;;;;;12.55;6.35;;;;;;;;;;1452623;40;20290;-42
2021/07/19 05:08:34;;;;;;;11.60;6.15;;;;;;;;;;1460820;40;20315;-42
2021/07/19 05:09:40;;;;;;;11.15;6.20;;;;;;;;;;1460939;40;20093;-41
2021/07/19 05:10:41;;;;;;;11.85;6.15;;;;;;;;;;1461250;40;20074;-42
2021/07/19 05:11:42;;;;;;;11.10;6.25;;;;;;;;;;1464811;40;20030;-47
2021/07/19 05:12:45;;;;;;;10.75;6.75;;;;;;;;;;1457179;40;20042;-44
2021/07/19 05:13:45;;;;;;;15.52;6.47;;;;;;;;;;1453422;40;20047;-43
2021/07/19 05:14:46;;;;;;;15.70;5.95;;;;;;;;;;1457989;40;21140;-48
2021/07/19 05:15:47;;;;;;;12.30;5.82;;;;;;;;;;1455002;40;20038;-43
2021/07/19 05:16:48;;;;;;;7.10;5.78;;;;;;;;;;1461254;40;21052;-43
2021/07/19 05:17:49;;;;;;;10.80;5.90;;;;;;;;;;1461045;40;20050;-45
2021/07/19 05:18:50;;;;;;;9.98;5.63;;;;;;;;;;1456898;40;20109;-43
2021/07/19 05:19:51;;;;;;;9.35;6.00;;;;;;;;;;1456938;40;20031;-43
2021/07/19 05:20:52;;;;;;;13.98;6.07;;;;;;;;;;1468158;40;20071;-43
2021/07/19 05:21:52;;;;;;;10.90;5.55;;;;;;;;;;1464803;40;20121;-42
2021/07/19 05:22:54;;;;;;;11.63;5.13;;;;;;;;;;1457297;40;20158;-52
2021/07/19 05:23:55;;;;;;;20.33;6.00;;;;;;;;;;1464710;40;20053;-42
2021/07/19 05:24:57;;;;;;;13.05;5.25;;;;;;;;;;1469052;40;20072;-43
2021/07/19 05:25:57;;;;;;;10.50;5.93;;;;;;;;;;1464878;40;20070;-45
2021/07/19 05:26:58;;;;;;;14.20;5.55;;;;;;;;;;1464686;40;20415;-43
2021/07/19 05:28:03;;;;;;;11.55;5.47;;;;;;;;;;1454544;40;21107;-42
2021/07/19 05:29:05;;;;;;;10.68;5.95;;;;;;;;;;1449592;40;20087;-46
2021/07/19 05:30:06;;;;;;;5.68;5.00;;;;;;;;;;1452969;40;20197;-47
2021/07/19 05:31:06;;;;;;;10.00;4.63;;;;;;;;;;1464261;40;20442;-41
2021/07/19 05:32:08;;;;;;;8.82;4.70;;;;;;;;;;1460752;40;20497;-49
2021/07/19 05:33:10;;;;;;;11.40;4.50;;;;;;;;;;1461876;40;20039;-43
2021/07/19 05:34:10;;;;;;;6.53;4.20;;;;;;;;;;1459514;40;20053;-42
2021/07/19 05:35:10;;;;;;;6.50;4.05;;;;;;;;;;1448813;40;20428;-44
2021/07/19 05:36:11;;;;;;;7.10;4.03;;;;;;;;;;1448669;40;20443;-42
2021/07/19 05:37:12;;;;;;;22.38;4.25;;;;;;;;;;1459119;40;20041;-44
2021/07/19 05:38:13;;;;;;;10.75;4.22;;;;;;;;;;1455400;40;20311;-38
2021/07/19 05:39:13;;;;;;;6.38;3.67;;;;;;;;;;1460861;40;20082;-41
2021/07/19 05:40:15;;;;;;;7.47;3.50;;;;;;;;;;1464559;40;20071;-43
2021/07/19 05:41:15;;;;;;;6.88;3.90;;;;;;;;;;1460137;40;20383;-44
2021/07/19 05:42:16;;;;;;;9.30;3.88;;;;;;;;;;1461994;40;20042;-40
2021/07/19 05:43:20;;;;;;;5.70;3.55;;;;;;;;;;1460812;40;20428;-48
2021/07/19 05:44:21;;;;;;;7.55;3.42;;;;;;;;;;1462828;40;20156;-42
2021/07/19 05:45:22;;;;;;;4.22;3.15;;;;;;;;;;1462607;40;20680;-41
2021/07/19 05:46:22;;;;;;;7.88;3.55;;;;;;;;;;1459887;40;20044;-44
2021/07/19 05:47:22;;;;;;;;;;;;;;;;;;1463420;40;20076;-43
2021/07/19 05:48:23;;;;;;;190.85;23.30;;;;;;;;;;1459781;40;19949;-44
2021/07/19 05:49:23;;;;;;;;;;;;;;;;;;1463608;40;20026;-42
2021/07/19 05:50:25;;;;;;;21.00;4.22;;;;;;;;;;1462988;40;19933;-41
2021/07/19 05:51:26;;;;;;;1.83;1.60;;;;;;;;;;1462958;40;20261;-42
2021/07/19 05:52:26;;;;;;;;;;;;;;;;;;1463603;40;20046;-43
2021/07/19 05:53:26;;;;;;;37.03;13.35;;;;;;;;;;1458717;40;20687;-41
2021/07/19 05:54:27;;;;;;;;;;;;;;;;;;1463557;40;20407;-45
2021/07/19 05:55:29;;;;;;;144.93;12.43;;;;;;;;;;1462868;40;20175;-42
2021/07/19 05:56:33;;;;;;;143.82;12.25;;;;;;;;;;1462937;40;20144;-42
2021/07/19 05:57:34;;;;;;;7.57;2.70;;;;;;;;;;1462820;40;20153;-45
2021/07/19 05:58:34;;;;;;;;;;;;;;;;;;1463699;40;20042;-42
2021/07/19 05:59:34;;;;;;;9.03;2.53;;;;;;;;;;1462934;40;20001;-43
2021/07/19 06:00:35;;;;;;;;;;;;;;;;;;1463600;40;20235;-47
2021/07/19 06:01:36;;;;;;;6.63;2.40;;;;;;;;;;1462993;40;20501;-43
2021/07/19 06:02:36;;;;;;;;;;;;;;;;;;1460553;40;20460;-44
2021/07/19 06:03:37;;;;;;;6.30;2.70;;;;;;;;;;1462908;40;20118;-47
2021/07/19 06:04:37;;;;;;;;;;;;;;;;;;1460881;40;20260;-42
2021/07/19 06:05:38;;;;;;;6.75;2.53;;;;;;;;;;1462885;40;19952;-42
2021/07/19 06:06:38;;;;;;;;;;;;;;;;;;1463337;40;20582;-42
2021/07/19 06:07:39;;;;;;;6.60;2.50;;;;;;;;;;1462866;40;19958;-47
2021/07/19 06:08:39;;;;;;;;;;;;;;;;;;1459604;40;20169;-40
2021/07/19 06:09:39;;;;;;;9.13;2.83;;;;;;;;;;1462930;40;19946;-41
2021/07/19 06:10:40;;;;;;;;;;;;;;;;;;1463654;40;20031;-42
2021/07/19 06:11:40;;;;;;;8.48;2.35;;;;;;;;;;1462884;40;19933;-41
2021/07/19 06:12:41;;;;;;;;;;;;;;;;;;1463614;40;20039;-41
2021/07/19 06:13:41;;;;;;;6.65;2.60;;;;;;;;;;1463050;40;20309;-44